sensor_id;sensor_type;location;lat;lon;timestamp;temperature;humidity
38237;DHT22;50101;49.438;11.098;2022-09-09T00:04:31;23.00;60.50
38237;DHT22;50101;49.438;11.098;2022-09-09T00:07:21;23.00;60.60
38237;DHT22;50101;49.438;11.098;2022-09-09T00:12:34;23.00;60.40
38237;DHT22;50101;49.438;11.098;2022-09-09T00:15:13;23.30;71.50
38237;DHT22;50101;49.438;11.098;2022-09-09T00:17:58;23.00;60.40
38237;DHT22;50101;49.438;11.098;2022-09-09T00:28:20;22.90;70.60
38237;DHT22;50101;49.438;11.098;2022-09-09T00:33:19;23.00;60.40
38237;DHT22;50101;49.438;11.098;2022-09-09T00:35:51;23.00;60.30
38237;DHT22;50101;49.438;11.098;2022-09-09T00:38:28;23.00;60.30
38237;DHT22;50101;49.438;11.098;2022-09-09T00:43:39;23.00;60.20
38237;DHT22;50101;49.438;11.098;2022-09-09T00:46:34;23.00;60.40
38237;DHT22;50101;49.438;11.098;2022-09-09T00:57:31;23.00;60.30
38237;DHT22;50101;49.438;11.098;2022-09-09T01:00:17;23.00;60.40
38237;DHT22;50101;49.438;11.098;2022-09-09T01:05:34;23.00;60.20
38237;DHT22;50101;49.438;11.098;2022-09-09T01:10:51;23.00;60.30
38237;DHT22;50101;49.438;11.098;2022-09-09T01:13:33;23.00;60.20
38237;DHT22;50101;49.438;11.098;2022-09-09T01:16:03;23.00;60.20
38237;DHT22;50101;49.438;11.098;2022-09-09T01:18:46;23.00;60.20
38237;DHT22;50101;49.438;11.098;2022-09-09T01:21:36;23.00;71.20
38237;DHT22;50101;49.438;11.098;2022-09-09T01:24:27;23.00;60.20
38237;DHT22;50101;49.438;11.098;2022-09-09T01:27:00;23.20;72.20
38237;DHT22;50101;49.438;11.098;2022-09-09T01:34:24;23.10;71.70
38237;DHT22;50101;49.438;11.098;2022-09-09T01:37:03;23.00;60.20
38237;DHT22;50101;49.438;11.098;2022-09-09T01:39:35;23.00;60.20
38237;DHT22;50101;49.438;11.098;2022-09-09T01:42:03;23.00;60.20
38237;DHT22;50101;49.438;11.098;2022-09-09T01:46:58;22.90;60.70
38237;DHT22;50101;49.438;11.098;2022-09-09T01:49:25;23.00;60.20
38237;DHT22;50101;49.438;11.098;2022-09-09T01:51:54;23.10;71.70
38237;DHT22;50101;49.438;11.098;2022-09-09T01:54:24;22.80;64.50
38237;DHT22;50101;49.438;11.098;2022-09-09T01:59:58;23.00;60.20
38237;DHT22;50101;49.438;11.098;2022-09-09T02:08:20;23.00;60.20
38237;DHT22;50101;49.438;11.098;2022-09-09T02:11:03;23.00;60.10
38237;DHT22;50101;49.438;11.098;2022-09-09T02:13:34;23.00;60.10
38237;DHT22;50101;49.438;11.098;2022-09-09T02:16:08;23.00;60.00
38237;DHT22;50101;49.438;11.098;2022-09-09T02:21:08;23.10;60.00
38237;DHT22;50101;49.438;11.098;2022-09-09T02:23:37;22.90;60.00
38237;DHT22;50101;49.438;11.098;2022-09-09T02:26:07;22.90;60.00
38237;DHT22;50101;49.438;11.098;2022-09-09T02:28:36;23.20;62.10
38237;DHT22;50101;49.438;11.098;2022-09-09T02:31:05;23.00;60.20
38237;DHT22;50101;49.438;11.098;2022-09-09T02:33:37;23.00;60.10
38237;DHT22;50101;49.438;11.098;2022-09-09T02:36:05;23.10;60.30
38237;DHT22;50101;49.438;11.098;2022-09-09T02:38:37;23.00;60.00
38237;DHT22;50101;49.438;11.098;2022-09-09T02:41:06;22.90;69.90
38237;DHT22;50101;49.438;11.098;2022-09-09T02:43:34;22.90;60.00
38237;DHT22;50101;49.438;11.098;2022-09-09T02:48:40;22.90;60.00
38237;DHT22;50101;49.438;11.098;2022-09-09T02:51:49;22.90;60.10
38237;DHT22;50101;49.438;11.098;2022-09-09T02:56:55;23.10;69.70
38237;DHT22;50101;49.438;11.098;2022-09-09T03:01:50;23.10;64.70
38237;DHT22;50101;49.438;11.098;2022-09-09T03:11:38;22.90;60.10
38237;DHT22;50101;49.438;11.098;2022-09-09T03:19:01;22.90;60.00
38237;DHT22;50101;49.438;11.098;2022-09-09T03:21:28;22.70;63.10
38237;DHT22;50101;49.438;11.098;2022-09-09T03:23:54;22.70;64.00
38237;DHT22;50101;49.438;11.098;2022-09-09T03:38:43;23.00;70.20
38237;DHT22;50101;49.438;11.098;2022-09-09T03:41:10;22.90;71.40
38237;DHT22;50101;49.438;11.098;2022-09-09T03:46:04;22.90;73.40
38237;DHT22;50101;49.438;11.098;2022-09-09T03:50:58;23.20;70.20
38237;DHT22;50101;49.438;11.098;2022-09-09T03:53:28;22.90;60.10
38237;DHT22;50101;49.438;11.098;2022-09-09T03:55:56;22.90;60.30
38237;DHT22;50101;49.438;11.098;2022-09-09T03:58:26;22.90;60.30
38237;DHT22;50101;49.438;11.098;2022-09-09T04:01:13;22.90;60.20
38237;DHT22;50101;49.438;11.098;2022-09-09T04:03:40;22.90;67.60
38237;DHT22;50101;49.438;11.098;2022-09-09T04:06:08;22.80;60.50
38237;DHT22;50101;49.438;11.098;2022-09-09T04:11:05;22.80;72.30
38237;DHT22;50101;49.438;11.098;2022-09-09T04:13:37;22.90;60.20
38237;DHT22;50101;49.438;11.098;2022-09-09T04:16:06;22.90;60.30
38237;DHT22;50101;49.438;11.098;2022-09-09T04:23:29;22.70;63.50
38237;DHT22;50101;49.438;11.098;2022-09-09T04:25:57;22.90;72.40
38237;DHT22;50101;49.438;11.098;2022-09-09T04:28:26;22.90;71.80
38237;DHT22;50101;49.438;11.098;2022-09-09T04:33:20;23.10;71.50
38237;DHT22;50101;49.438;11.098;2022-09-09T04:35:48;22.80;64.40
38237;DHT22;50101;49.438;11.098;2022-09-09T04:40:46;23.10;72.40
38237;DHT22;50101;49.438;11.098;2022-09-09T04:43:13;22.90;71.80
38237;DHT22;50101;49.438;11.098;2022-09-09T04:45:41;22.90;60.30
38237;DHT22;50101;49.438;11.098;2022-09-09T04:55:35;22.70;64.00
38237;DHT22;50101;49.438;11.098;2022-09-09T04:58:06;22.80;69.70
38237;DHT22;50101;49.438;11.098;2022-09-09T05:00:34;22.90;70.20
38237;DHT22;50101;49.438;11.098;2022-09-09T05:03:03;22.80;60.50
38237;DHT22;50101;49.438;11.098;2022-09-09T05:05:32;23.10;67.80
38237;DHT22;50101;49.438;11.098;2022-09-09T05:08:04;22.80;60.70
38237;DHT22;50101;49.438;11.098;2022-09-09T05:10:31;22.80;60.90
38237;DHT22;50101;49.438;11.098;2022-09-09T05:12:58;22.60;66.90
38237;DHT22;50101;49.438;11.098;2022-09-09T05:17:52;22.80;70.70
38237;DHT22;50101;49.438;11.098;2022-09-09T05:22:53;22.80;60.80
38237;DHT22;50101;49.438;11.098;2022-09-09T05:27:48;22.90;64.50
38237;DHT22;50101;49.438;11.098;2022-09-09T05:30:16;22.80;69.40
38237;DHT22;50101;49.438;11.098;2022-09-09T05:49:57;22.80;70.50
38237;DHT22;50101;49.438;11.098;2022-09-09T05:57:21;22.60;67.00
38237;DHT22;50101;49.438;11.098;2022-09-09T05:59:48;22.60;72.70
38237;DHT22;50101;49.438;11.098;2022-09-09T06:12:03;22.60;70.00
38237;DHT22;50101;49.438;11.098;2022-09-09T06:21:52;22.70;68.20
38237;DHT22;50101;49.438;11.098;2022-09-09T06:26:46;22.50;63.30
38237;DHT22;50101;49.438;11.098;2022-09-09T06:29:13;22.60;70.20
38237;DHT22;50101;49.438;11.098;2022-09-09T06:31:39;22.60;70.00
38237;DHT22;50101;49.438;11.098;2022-09-09T06:34:08;22.80;65.40
38237;DHT22;50101;49.438;11.098;2022-09-09T06:36:37;23.00;65.10
38237;DHT22;50101;49.438;11.098;2022-09-09T06:39:05;22.80;60.80
38237;DHT22;50101;49.438;11.098;2022-09-09T06:44:06;22.80;72.30
38237;DHT22;50101;49.438;11.098;2022-09-09T06:49:02;22.70;67.90
38237;DHT22;50101;49.438;11.098;2022-09-09T06:51:30;22.70;60.90
38237;DHT22;50101;49.438;11.098;2022-09-09T06:53:59;22.50;65.40
38237;DHT22;50101;49.438;11.098;2022-09-09T06:58:56;22.70;60.80
38237;DHT22;50101;49.438;11.098;2022-09-09T07:01:25;22.70;60.90
38237;DHT22;50101;49.438;11.098;2022-09-09T07:03:54;22.80;60.90
38237;DHT22;50101;49.438;11.098;2022-09-09T07:06:23;22.80;60.60
38237;DHT22;50101;49.438;11.098;2022-09-09T07:08:59;22.60;69.50
38237;DHT22;50101;49.438;11.098;2022-09-09T07:11:31;22.80;63.20
38237;DHT22;50101;49.438;11.098;2022-09-09T07:13:59;22.70;62.60
38237;DHT22;50101;49.438;11.098;2022-09-09T07:16:27;22.60;67.40
38237;DHT22;50101;49.438;11.098;2022-09-09T07:18:54;22.70;59.70
38237;DHT22;50101;49.438;11.098;2022-09-09T07:21:28;22.70;60.30
38237;DHT22;50101;49.438;11.098;2022-09-09T07:23:56;22.60;69.80
38237;DHT22;50101;49.438;11.098;2022-09-09T07:26:29;22.70;60.40
38237;DHT22;50101;49.438;11.098;2022-09-09T07:31:28;22.70;60.50
38237;DHT22;50101;49.438;11.098;2022-09-09T07:33:57;22.70;60.60
38237;DHT22;50101;49.438;11.098;2022-09-09T07:36:31;22.70;60.50
38237;DHT22;50101;49.438;11.098;2022-09-09T07:39:02;22.60;60.40
38237;DHT22;50101;49.438;11.098;2022-09-09T07:41:33;22.70;71.60
38237;DHT22;50101;49.438;11.098;2022-09-09T07:44:09;22.70;60.50
38237;DHT22;50101;49.438;11.098;2022-09-09T07:46:38;22.70;65.80
38237;DHT22;50101;49.438;11.098;2022-09-09T07:49:08;22.70;60.40
38237;DHT22;50101;49.438;11.098;2022-09-09T07:51:38;22.60;64.50
38237;DHT22;50101;49.438;11.098;2022-09-09T07:54:08;22.70;60.50
38237;DHT22;50101;49.438;11.098;2022-09-09T07:56:36;22.80;60.40
38237;DHT22;50101;49.438;11.098;2022-09-09T07:59:03;22.90;63.40
38237;DHT22;50101;49.438;11.098;2022-09-09T08:01:41;22.70;60.40
38237;DHT22;50101;49.438;11.098;2022-09-09T08:04:10;22.60;64.90
38237;DHT22;50101;49.438;11.098;2022-09-09T08:06:43;22.80;71.70
38237;DHT22;50101;49.438;11.098;2022-09-09T08:09:10;22.90;61.20
38237;DHT22;50101;49.438;11.098;2022-09-09T08:14:06;22.80;60.20
38237;DHT22;50101;49.438;11.098;2022-09-09T08:21:35;22.80;60.30
38237;DHT22;50101;49.438;11.098;2022-09-09T08:26:34;22.60;64.90
38237;DHT22;50101;49.438;11.098;2022-09-09T08:29:03;22.80;71.40
38237;DHT22;50101;49.438;11.098;2022-09-09T08:31:35;22.80;60.20
38237;DHT22;50101;49.438;11.098;2022-09-09T08:34:03;22.80;60.40
38237;DHT22;50101;49.438;11.098;2022-09-09T08:36:33;22.90;68.30
38237;DHT22;50101;49.438;11.098;2022-09-09T08:39:01;22.80;60.40
38237;DHT22;50101;49.438;11.098;2022-09-09T08:44:22;22.70;71.60
38237;DHT22;50101;49.438;11.098;2022-09-09T08:47:26;22.80;60.50
38237;DHT22;50101;49.438;11.098;2022-09-09T08:50:30;22.80;60.40
38237;DHT22;50101;49.438;11.098;2022-09-09T08:53:04;22.80;60.50
38237;DHT22;50101;49.438;11.098;2022-09-09T08:55:48;22.90;60.50
38237;DHT22;50101;49.438;11.098;2022-09-09T09:03:28;22.90;62.50
38237;DHT22;50101;49.438;11.098;2022-09-09T09:06:22;22.90;60.30
38237;DHT22;50101;49.438;11.098;2022-09-09T09:09:06;22.90;60.40
38237;DHT22;50101;49.438;11.098;2022-09-09T09:11:39;22.90;60.30
38237;DHT22;50101;49.438;11.098;2022-09-09T09:19:31;22.80;71.60
38237;DHT22;50101;49.438;11.098;2022-09-09T09:27:25;23.00;60.20
38237;DHT22;50101;49.438;11.098;2022-09-09T09:29:56;23.00;70.30
38237;DHT22;50101;49.438;11.098;2022-09-09T09:37:52;23.10;71.50
38237;DHT22;50101;49.438;11.098;2022-09-09T09:40:54;23.00;60.30
38237;DHT22;50101;49.438;11.098;2022-09-09T09:43:27;22.90;71.30
38237;DHT22;50101;49.438;11.098;2022-09-09T09:45:54;22.90;67.80
38237;DHT22;50101;49.438;11.098;2022-09-09T09:51:11;23.00;71.10
38237;DHT22;50101;49.438;11.098;2022-09-09T09:56:10;23.00;60.40
38237;DHT22;50101;49.438;11.098;2022-09-09T09:58:57;23.00;60.20
38237;DHT22;50101;49.438;11.098;2022-09-09T10:01:28;23.20;71.50
38237;DHT22;50101;49.438;11.098;2022-09-09T10:04:18;23.00;60.20
38237;DHT22;50101;49.438;11.098;2022-09-09T10:06:47;23.00;71.00
38237;DHT22;50101;49.438;11.098;2022-09-09T10:11:57;23.00;71.80
38237;DHT22;50101;49.438;11.098;2022-09-09T10:15:29;23.00;60.30
38237;DHT22;50101;49.438;11.098;2022-09-09T10:17:57;23.00;60.40
38237;DHT22;50101;49.438;11.098;2022-09-09T10:20:43;23.00;60.40
38237;DHT22;50101;49.438;11.098;2022-09-09T10:28:55;23.00;60.40
38237;DHT22;50101;49.438;11.098;2022-09-09T10:37:50;23.00;60.40
38237;DHT22;50101;49.438;11.098;2022-09-09T10:40:33;23.00;60.40
38237;DHT22;50101;49.438;11.098;2022-09-09T10:43:29;23.10;60.60
38237;DHT22;50101;49.438;11.098;2022-09-09T10:48:49;23.20;67.50
38237;DHT22;50101;49.438;11.098;2022-09-09T10:51:36;23.10;60.30
38237;DHT22;50101;49.438;11.098;2022-09-09T10:56:42;23.20;60.20
38237;DHT22;50101;49.438;11.098;2022-09-09T10:59:23;23.20;60.50
38237;DHT22;50101;49.438;11.098;2022-09-09T11:02:20;22.80;61.40
38237;DHT22;50101;49.438;11.098;2022-09-09T11:07:30;23.10;60.50
38237;DHT22;50101;49.438;11.098;2022-09-09T11:10:02;23.10;60.50
38237;DHT22;50101;49.438;11.098;2022-09-09T11:12:31;23.60;60.70
38237;DHT22;50101;49.438;11.098;2022-09-09T11:17:43;23.20;60.60
38237;DHT22;50101;49.438;11.098;2022-09-09T11:20:15;23.00;71.60
38237;DHT22;50101;49.438;11.098;2022-09-09T11:22:57;23.10;60.70
38237;DHT22;50101;49.438;11.098;2022-09-09T11:36:27;23.10;60.50
38237;DHT22;50101;49.438;11.098;2022-09-09T11:41:50;23.40;70.50
38237;DHT22;50101;49.438;11.098;2022-09-09T11:44:23;23.20;60.10
38237;DHT22;50101;49.438;11.098;2022-09-09T11:46:51;23.10;61.70
38237;DHT22;50101;49.438;11.098;2022-09-09T11:49:40;23.10;60.40
38237;DHT22;50101;49.438;11.098;2022-09-09T11:52:39;23.10;60.40
38237;DHT22;50101;49.438;11.098;2022-09-09T11:55:27;23.10;60.40
38237;DHT22;50101;49.438;11.098;2022-09-09T11:58:03;23.20;60.30
38237;DHT22;50101;49.438;11.098;2022-09-09T12:00:42;23.20;60.30
38237;DHT22;50101;49.438;11.098;2022-09-09T12:03:40;23.10;60.30
38237;DHT22;50101;49.438;11.098;2022-09-09T12:06:18;23.20;71.80
38237;DHT22;50101;49.438;11.098;2022-09-09T12:08:51;23.10;60.60
38237;DHT22;50101;49.438;11.098;2022-09-09T12:11:29;23.10;60.60
38237;DHT22;50101;49.438;11.098;2022-09-09T12:13:58;23.10;60.70
38237;DHT22;50101;49.438;11.098;2022-09-09T12:16:33;23.20;63.10
38237;DHT22;50101;49.438;11.098;2022-09-09T12:19:06;23.00;60.60
38237;DHT22;50101;49.438;11.098;2022-09-09T12:21:45;23.20;72.50
38237;DHT22;50101;49.438;11.098;2022-09-09T12:24:37;23.10;60.90
38237;DHT22;50101;49.438;11.098;2022-09-09T12:27:20;23.10;60.80
38237;DHT22;50101;49.438;11.098;2022-09-09T12:35:21;23.10;60.60
38237;DHT22;50101;49.438;11.098;2022-09-09T12:37:53;23.10;60.70
38237;DHT22;50101;49.438;11.098;2022-09-09T12:42:50;23.10;61.80
38237;DHT22;50101;49.438;11.098;2022-09-09T12:47:58;23.20;60.90
38237;DHT22;50101;49.438;11.098;2022-09-09T12:50:29;23.00;67.00
38237;DHT22;50101;49.438;11.098;2022-09-09T12:53:07;23.20;60.70
38237;DHT22;50101;49.438;11.098;2022-09-09T12:55:38;23.20;60.80
38237;DHT22;50101;49.438;11.098;2022-09-09T12:58:06;23.10;60.80
38237;DHT22;50101;49.438;11.098;2022-09-09T13:00:34;23.10;60.80
38237;DHT22;50101;49.438;11.098;2022-09-09T13:03:13;23.20;61.00
38237;DHT22;50101;49.438;11.098;2022-09-09T13:08:12;23.30;61.50
38237;DHT22;50101;49.438;11.098;2022-09-09T13:10:55;23.20;60.90
38237;DHT22;50101;49.438;11.098;2022-09-09T13:13:39;23.10;61.00
38237;DHT22;50101;49.438;11.098;2022-09-09T13:16:39;23.10;61.00
38237;DHT22;50101;49.438;11.098;2022-09-09T13:19:13;23.10;61.20
38237;DHT22;50101;49.438;11.098;2022-09-09T13:24:31;23.10;61.30
38237;DHT22;50101;49.438;11.098;2022-09-09T13:27:01;23.00;71.70
38237;DHT22;50101;49.438;11.098;2022-09-09T13:29:29;23.00;72.30
38237;DHT22;50101;49.438;11.098;2022-09-09T13:32:12;23.10;60.80
38237;DHT22;50101;49.438;11.098;2022-09-09T13:37:14;23.10;61.00
38237;DHT22;50101;49.438;11.098;2022-09-09T13:39:51;23.00;61.40
38237;DHT22;50101;49.438;11.098;2022-09-09T13:44:52;22.80;61.30
38237;DHT22;50101;49.438;11.098;2022-09-09T13:47:31;23.10;64.30
38237;DHT22;50101;49.438;11.098;2022-09-09T13:49:58;23.20;66.10
38237;DHT22;50101;49.438;11.098;2022-09-09T13:52:27;23.10;69.70
38237;DHT22;50101;49.438;11.098;2022-09-09T13:54:57;23.10;68.40
38237;DHT22;50101;49.438;11.098;2022-09-09T13:57:25;23.20;61.40
38237;DHT22;50101;49.438;11.098;2022-09-09T13:59:53;23.20;61.50
38237;DHT22;50101;49.438;11.098;2022-09-09T14:07:32;23.30;70.60
38237;DHT22;50101;49.438;11.098;2022-09-09T14:19:48;23.30;67.00
38237;DHT22;50101;49.438;11.098;2022-09-09T14:24:42;23.20;69.00
38237;DHT22;50101;49.438;11.098;2022-09-09T14:29:36;23.20;72.20
38237;DHT22;50101;49.438;11.098;2022-09-09T14:41:55;23.10;73.00
38237;DHT22;50101;49.438;11.098;2022-09-09T14:46:49;23.20;73.40
38237;DHT22;50101;49.438;11.098;2022-09-09T14:51:47;23.20;69.80
38237;DHT22;50101;49.438;11.098;2022-09-09T14:59:08;23.10;67.30
38237;DHT22;50101;49.438;11.098;2022-09-09T15:01:35;23.10;70.80
38237;DHT22;50101;49.438;11.098;2022-09-09T15:04:04;23.10;62.10
38237;DHT22;50101;49.438;11.098;2022-09-09T15:06:33;23.10;73.60
38237;DHT22;50101;49.438;11.098;2022-09-09T15:09:00;22.90;64.30
38237;DHT22;50101;49.438;11.098;2022-09-09T15:11:29;23.10;62.00
38237;DHT22;50101;49.438;11.098;2022-09-09T15:16:27;23.10;62.00
38237;DHT22;50101;49.438;11.098;2022-09-09T15:18:56;23.20;63.00
38237;DHT22;50101;49.438;11.098;2022-09-09T15:21:28;23.10;61.90
38237;DHT22;50101;49.438;11.098;2022-09-09T15:23:56;23.10;73.60
38237;DHT22;50101;49.438;11.098;2022-09-09T15:26:23;23.10;65.50
38237;DHT22;50101;49.438;11.098;2022-09-09T15:28:51;23.00;65.80
38237;DHT22;50101;49.438;11.098;2022-09-09T15:31:20;23.00;61.20
38237;DHT22;50101;49.438;11.098;2022-09-09T15:33:51;23.10;61.40
38237;DHT22;50101;49.438;11.098;2022-09-09T15:36:32;23.30;61.70
38237;DHT22;50101;49.438;11.098;2022-09-09T15:39:00;23.10;66.20
38237;DHT22;50101;49.438;11.098;2022-09-09T15:41:27;23.20;73.80
38237;DHT22;50101;49.438;11.098;2022-09-09T15:43:55;23.00;73.60
38237;DHT22;50101;49.438;11.098;2022-09-09T15:51:25;22.90;64.40
38237;DHT22;50101;49.438;11.098;2022-09-09T15:54:14;23.10;61.60
38237;DHT22;50101;49.438;11.098;2022-09-09T15:59:10;23.10;71.30
38237;DHT22;50101;49.438;11.098;2022-09-09T16:01:38;23.10;61.80
38237;DHT22;50101;49.438;11.098;2022-09-09T16:04:06;23.00;70.30
38237;DHT22;50101;49.438;11.098;2022-09-09T16:11:29;23.00;63.50
38237;DHT22;50101;49.438;11.098;2022-09-09T16:13:57;23.10;73.80
38237;DHT22;50101;49.438;11.098;2022-09-09T16:16:26;22.90;61.30
38237;DHT22;50101;49.438;11.098;2022-09-09T16:18:59;23.10;70.30
38237;DHT22;50101;49.438;11.098;2022-09-09T16:21:31;23.00;61.60
38237;DHT22;50101;49.438;11.098;2022-09-09T16:23:59;22.90;73.90
38237;DHT22;50101;49.438;11.098;2022-09-09T16:26:27;23.10;73.80
38237;DHT22;50101;49.438;11.098;2022-09-09T16:28:54;22.90;66.30
38237;DHT22;50101;49.438;11.098;2022-09-09T16:31:25;23.00;61.80
38237;DHT22;50101;49.438;11.098;2022-09-09T16:36:23;23.00;72.80
38237;DHT22;50101;49.438;11.098;2022-09-09T16:41:21;23.10;74.00
38237;DHT22;50101;49.438;11.098;2022-09-09T16:46:20;23.00;61.40
38237;DHT22;50101;49.438;11.098;2022-09-09T16:48:48;23.30;67.40
38237;DHT22;50101;49.438;11.098;2022-09-09T16:51:16;22.80;71.00
38237;DHT22;50101;49.438;11.098;2022-09-09T16:53:43;23.00;74.30
38237;DHT22;50101;49.438;11.098;2022-09-09T16:56:12;23.00;63.20
38237;DHT22;50101;49.438;11.098;2022-09-09T17:01:09;22.80;73.90
38237;DHT22;50101;49.438;11.098;2022-09-09T17:06:12;23.00;61.60
38237;DHT22;50101;49.438;11.098;2022-09-09T17:08:39;22.90;73.00
38237;DHT22;50101;49.438;11.098;2022-09-09T17:11:15;23.00;61.70
38237;DHT22;50101;49.438;11.098;2022-09-09T17:13:43;22.70;66.50
38237;DHT22;50101;49.438;11.098;2022-09-09T17:16:10;22.90;61.80
38237;DHT22;50101;49.438;11.098;2022-09-09T17:18:38;23.10;68.10
38237;DHT22;50101;49.438;11.098;2022-09-09T17:21:07;22.90;61.60
38237;DHT22;50101;49.438;11.098;2022-09-09T17:23:35;22.90;61.70
38237;DHT22;50101;49.438;11.098;2022-09-09T17:26:05;22.70;73.70
38237;DHT22;50101;49.438;11.098;2022-09-09T17:28:35;22.90;61.70
38237;DHT22;50101;49.438;11.098;2022-09-09T17:31:02;22.90;61.80
38237;DHT22;50101;49.438;11.098;2022-09-09T17:33:32;23.00;74.40
38237;DHT22;50101;49.438;11.098;2022-09-09T17:36:01;22.80;69.80
38237;DHT22;50101;49.438;11.098;2022-09-09T17:41:14;22.90;61.80
38237;DHT22;50101;49.438;11.098;2022-09-09T17:43:42;22.60;73.40
38237;DHT22;50101;49.438;11.098;2022-09-09T17:48:37;22.90;61.80
38237;DHT22;50101;49.438;11.098;2022-09-09T17:51:06;23.00;68.60
38237;DHT22;50101;49.438;11.098;2022-09-09T17:53:38;22.90;61.90
38237;DHT22;50101;49.438;11.098;2022-09-09T17:56:06;22.90;61.90
38237;DHT22;50101;49.438;11.098;2022-09-09T18:03:36;22.90;61.70
38237;DHT22;50101;49.438;11.098;2022-09-09T18:06:06;22.90;67.50
38237;DHT22;50101;49.438;11.098;2022-09-09T18:08:34;22.90;61.80
38237;DHT22;50101;49.438;11.098;2022-09-09T18:11:03;22.90;65.40
38237;DHT22;50101;49.438;11.098;2022-09-09T18:13:30;22.60;73.30
38237;DHT22;50101;49.438;11.098;2022-09-09T18:21:06;22.90;61.60
38237;DHT22;50101;49.438;11.098;2022-09-09T18:26:10;22.90;61.70
38237;DHT22;50101;49.438;11.098;2022-09-09T18:28:38;22.80;67.30
38237;DHT22;50101;49.438;11.098;2022-09-09T18:31:11;22.90;61.70
38237;DHT22;50101;49.438;11.098;2022-09-09T18:33:41;22.90;61.80
38237;DHT22;50101;49.438;11.098;2022-09-09T18:36:14;22.90;61.70
38237;DHT22;50101;49.438;11.098;2022-09-09T18:41:22;22.90;61.80
38237;DHT22;50101;49.438;11.098;2022-09-09T18:43:51;23.00;62.80
38237;DHT22;50101;49.438;11.098;2022-09-09T18:46:19;22.90;61.90
38237;DHT22;50101;49.438;11.098;2022-09-09T18:48:47;22.90;62.10
38237;DHT22;50101;49.438;11.098;2022-09-09T18:51:18;22.90;61.90
38237;DHT22;50101;49.438;11.098;2022-09-09T18:53:59;22.90;62.10
38237;DHT22;50101;49.438;11.098;2022-09-09T18:56:27;22.70;73.20
38237;DHT22;50101;49.438;11.098;2022-09-09T18:58:57;23.00;62.30
38237;DHT22;50101;49.438;11.098;2022-09-09T19:01:25;23.00;73.70
38237;DHT22;50101;49.438;11.098;2022-09-09T19:06:22;22.90;61.90
38237;DHT22;50101;49.438;11.098;2022-09-09T19:08:49;22.80;72.00
38237;DHT22;50101;49.438;11.098;2022-09-09T19:14:01;22.90;62.10
38237;DHT22;50101;49.438;11.098;2022-09-09T19:16:30;22.90;72.10
38237;DHT22;50101;49.438;11.098;2022-09-09T19:18:59;22.90;68.90
38237;DHT22;50101;49.438;11.098;2022-09-09T19:24:00;22.80;62.00
38237;DHT22;50101;49.438;11.098;2022-09-09T19:26:29;22.80;72.30
38237;DHT22;50101;49.438;11.098;2022-09-09T19:28:58;23.10;72.50
38237;DHT22;50101;49.438;11.098;2022-09-09T19:31:26;23.00;62.70
38237;DHT22;50101;49.438;11.098;2022-09-09T19:33:56;22.90;62.00
38237;DHT22;50101;49.438;11.098;2022-09-09T19:36:24;22.50;65.60
38237;DHT22;50101;49.438;11.098;2022-09-09T19:38:54;22.80;65.30
38237;DHT22;50101;49.438;11.098;2022-09-09T19:41:23;22.90;62.10
38237;DHT22;50101;49.438;11.098;2022-09-09T19:43:51;22.90;62.10
38237;DHT22;50101;49.438;11.098;2022-09-09T19:48:45;22.80;72.30
38237;DHT22;50101;49.438;11.098;2022-09-09T19:51:17;22.80;64.60
38237;DHT22;50101;49.438;11.098;2022-09-09T19:53:47;22.80;65.80
38237;DHT22;50101;49.438;11.098;2022-09-09T19:56:15;22.80;72.50
38237;DHT22;50101;49.438;11.098;2022-09-09T19:58:44;23.00;61.60
38237;DHT22;50101;49.438;11.098;2022-09-09T20:01:13;22.80;71.60
38237;DHT22;50101;49.438;11.098;2022-09-09T20:03:42;22.80;64.50
38237;DHT22;50101;49.438;11.098;2022-09-09T20:06:11;22.80;62.10
38237;DHT22;50101;49.438;11.098;2022-09-09T20:08:39;22.60;71.60
38237;DHT22;50101;49.438;11.098;2022-09-09T20:11:07;23.00;67.10
38237;DHT22;50101;49.438;11.098;2022-09-09T20:13:36;22.90;62.30
38237;DHT22;50101;49.438;11.098;2022-09-09T20:16:09;22.80;62.40
38237;DHT22;50101;49.438;11.098;2022-09-09T20:18:42;22.90;64.50
38237;DHT22;50101;49.438;11.098;2022-09-09T20:21:14;22.80;62.30
38237;DHT22;50101;49.438;11.098;2022-09-09T20:23:42;22.80;62.40
38237;DHT22;50101;49.438;11.098;2022-09-09T20:26:11;22.80;62.80
38237;DHT22;50101;49.438;11.098;2022-09-09T20:28:40;22.70;62.60
38237;DHT22;50101;49.438;11.098;2022-09-09T20:31:13;22.70;62.60
38237;DHT22;50101;49.438;11.098;2022-09-09T20:33:41;22.70;62.70
38237;DHT22;50101;49.438;11.098;2022-09-09T20:36:09;22.90;69.80
38237;DHT22;50101;49.438;11.098;2022-09-09T20:38:50;22.80;62.60
38237;DHT22;50101;49.438;11.098;2022-09-09T20:41:20;22.80;62.40
38237;DHT22;50101;49.438;11.098;2022-09-09T20:43:52;22.60;67.00
38237;DHT22;50101;49.438;11.098;2022-09-09T20:46:25;22.70;63.80
38237;DHT22;50101;49.438;11.098;2022-09-09T20:48:53;22.80;65.50
38237;DHT22;50101;49.438;11.098;2022-09-09T20:51:29;22.80;64.30
38237;DHT22;50101;49.438;11.098;2022-09-09T20:54:06;22.80;67.40
38237;DHT22;50101;49.438;11.098;2022-09-09T20:56:37;22.80;62.40
38237;DHT22;50101;49.438;11.098;2022-09-09T21:01:38;22.70;68.80
38237;DHT22;50101;49.438;11.098;2022-09-09T21:04:05;22.90;70.50
38237;DHT22;50101;49.438;11.098;2022-09-09T21:09:00;22.70;69.10
38237;DHT22;50101;49.438;11.098;2022-09-09T21:11:27;22.70;70.80
38237;DHT22;50101;49.438;11.098;2022-09-09T21:18:49;22.80;70.40
38237;DHT22;50101;49.438;11.098;2022-09-09T21:23:44;22.80;65.10
38237;DHT22;50101;49.438;11.098;2022-09-09T21:26:13;22.80;71.30
38237;DHT22;50101;49.438;11.098;2022-09-09T21:28:40;22.70;70.90
38237;DHT22;50101;49.438;11.098;2022-09-09T21:31:15;22.70;62.50
38237;DHT22;50101;49.438;11.098;2022-09-09T21:33:42;22.80;69.10
38237;DHT22;50101;49.438;11.098;2022-09-09T21:38:37;22.70;70.90
38237;DHT22;50101;49.438;11.098;2022-09-09T21:41:07;22.70;62.70
38237;DHT22;50101;49.438;11.098;2022-09-09T21:43:34;22.60;70.80
38237;DHT22;50101;49.438;11.098;2022-09-09T21:46:13;22.70;62.70
38237;DHT22;50101;49.438;11.098;2022-09-09T21:51:10;22.70;63.20
38237;DHT22;50101;49.438;11.098;2022-09-09T21:56:06;22.50;65.20
38237;DHT22;50101;49.438;11.098;2022-09-09T21:58:34;22.70;62.70
38237;DHT22;50101;49.438;11.098;2022-09-09T22:01:08;22.70;62.70
38237;DHT22;50101;49.438;11.098;2022-09-09T22:03:36;22.60;71.80
38237;DHT22;50101;49.438;11.098;2022-09-09T22:06:05;23.10;71.90
38237;DHT22;50101;49.438;11.098;2022-09-09T22:11:05;22.70;62.80